createdAt,value
2022-10-19T00:00:18.141Z,18.10
2022-10-19T00:02:49.761Z,18.00
2022-10-19T00:05:24.821Z,18.00
2022-10-19T00:07:55.996Z,17.70
2022-10-19T00:10:28.790Z,17.60
2022-10-19T00:13:02.435Z,17.40
2022-10-19T00:15:37.243Z,17.40
2022-10-19T00:18:26.846Z,17.20
2022-10-19T00:21:12.860Z,17.10
2022-10-19T00:23:58.431Z,17.10
2022-10-19T00:26:34.397Z,16.90
2022-10-19T00:29:14.344Z,16.90
2022-10-19T00:34:32.797Z,16.80
2022-10-19T00:37:06.672Z,16.80
2022-10-19T00:39:47.118Z,16.80
2022-10-19T00:42:22.209Z,16.60
2022-10-19T00:48:07.934Z,16.80
2022-10-19T00:50:44.392Z,16.40
2022-10-19T00:53:20.299Z,16.70
2022-10-19T00:56:17.090Z,16.20
2022-10-19T00:58:48.175Z,16.40
2022-10-19T01:01:24.448Z,16.30
2022-10-19T01:03:59.753Z,16.10
2022-10-19T01:06:38.809Z,16.00
2022-10-19T01:12:47.147Z,15.90
2022-10-19T01:15:59.314Z,15.80
2022-10-19T01:18:42.642Z,15.90
2022-10-19T01:21:38.603Z,15.80
2022-10-19T01:24:28.491Z,15.80
2022-10-19T01:27:47.224Z,15.80
2022-10-19T01:30:53.502Z,15.70
2022-10-19T01:34:12.139Z,15.40
2022-10-19T01:36:58.667Z,15.70
2022-10-19T01:39:45.327Z,15.60
2022-10-19T01:42:32.249Z,15.50
2022-10-19T01:48:23.545Z,15.50
2022-10-19T01:51:21.669Z,15.60
2022-10-19T01:54:18.120Z,15.50
2022-10-19T01:56:54.895Z,15.30
2022-10-19T01:59:29.297Z,15.30
2022-10-19T02:02:01.066Z,15.40
2022-10-19T02:04:39.795Z,15.30
2022-10-19T02:07:14.106Z,15.30
2022-10-19T02:09:47.206Z,15.20
2022-10-19T02:12:24.617Z,15.20
2022-10-19T02:14:59.200Z,15.10
2022-10-19T02:17:40.583Z,15.10
2022-10-19T02:20:20.738Z,14.90
2022-10-19T02:22:54.134Z,14.90
2022-10-19T02:25:24.574Z,15.20
2022-10-19T02:27:57.542Z,15.10
2022-10-19T02:30:30.218Z,15.20
2022-10-19T02:33:02.699Z,15.00
2022-10-19T02:35:44.455Z,14.80
2022-10-19T02:38:29.795Z,14.70
2022-10-19T02:41:43.335Z,14.30
2022-10-19T02:44:42.418Z,14.30
2022-10-19T02:47:23.500Z,14.50
2022-10-19T02:50:00.063Z,14.70
2022-10-19T02:53:03.896Z,14.50
2022-10-19T02:55:36.078Z,14.30
2022-10-19T02:58:29.013Z,14.50
2022-10-19T03:01:20.948Z,14.80
2022-10-19T03:04:01.559Z,14.60
2022-10-19T03:06:35.007Z,14.50
2022-10-19T03:09:23.762Z,14.50
2022-10-19T03:11:54.151Z,14.40
2022-10-19T03:14:47.564Z,14.40
2022-10-19T03:17:22.287Z,14.40
2022-10-19T03:20:01.413Z,14.20
2022-10-19T03:22:44.667Z,14.10
2022-10-19T03:25:22.234Z,14.10
2022-10-19T03:28:06.735Z,14.10
2022-10-19T03:30:38.745Z,14.10
2022-10-19T03:33:26.946Z,14.00
2022-10-19T03:36:18.041Z,14.20
2022-10-19T03:38:52.959Z,14.00
2022-10-19T03:41:30.313Z,14.10
2022-10-19T03:44:15.399Z,13.90
2022-10-19T03:46:52.562Z,13.70
2022-10-19T03:49:28.189Z,13.90
2022-10-19T03:52:02.975Z,14.10
2022-10-19T03:54:51.971Z,14.10
2022-10-19T03:57:33.263Z,14.00
2022-10-19T04:00:18.991Z,14.00
2022-10-19T04:02:55.341Z,14.10
2022-10-19T04:05:27.710Z,13.90
2022-10-19T04:08:04.788Z,14.00
2022-10-19T04:10:44.074Z,13.90
2022-10-19T04:13:16.224Z,13.80
2022-10-19T04:15:47.574Z,13.80
2022-10-19T04:18:19.718Z,13.80
2022-10-19T04:20:59.555Z,13.90
2022-10-19T04:23:35.002Z,13.80
2022-10-19T04:26:12.809Z,13.70
2022-10-19T04:28:49.947Z,13.60
2022-10-19T04:31:23.520Z,13.80
2022-10-19T04:33:59.154Z,13.50
2022-10-19T04:36:37.430Z,13.40
2022-10-19T04:39:10.019Z,13.70
2022-10-19T04:41:43.031Z,13.60
2022-10-19T04:44:13.599Z,13.70
2022-10-19T04:46:55.712Z,13.60
2022-10-19T04:49:30.685Z,13.60
2022-10-19T04:52:02.583Z,13.40
2022-10-19T04:54:51.137Z,13.30
2022-10-19T04:57:24.938Z,13.30
2022-10-19T05:03:12.801Z,13.20
2022-10-19T05:05:47.488Z,13.40
2022-10-19T05:08:20.468Z,13.50
2022-10-19T05:10:53.838Z,13.00
2022-10-19T05:13:32.997Z,12.90
2022-10-19T05:19:15.012Z,13.10
2022-10-19T05:22:04.924Z,13.20
2022-10-19T05:24:58.303Z,13.40
2022-10-19T05:27:57.702Z,13.10
2022-10-19T05:30:28.977Z,13.20
2022-10-19T05:33:04.700Z,13.30
2022-10-19T05:35:40.024Z,13.10
2022-10-19T05:38:14.597Z,12.90
2022-10-19T05:40:53.499Z,12.60
2022-10-19T05:43:40.156Z,12.40
2022-10-19T05:46:23.820Z,12.60
2022-10-19T05:49:08.332Z,12.70
2022-10-19T05:52:04.019Z,12.80
2022-10-19T05:54:37.984Z,12.80
2022-10-19T05:57:11.317Z,12.50
2022-10-19T05:59:43.491Z,12.50
2022-10-19T06:02:19.464Z,12.60
2022-10-19T06:04:55.403Z,12.50
2022-10-19T06:07:25.576Z,12.40
2022-10-19T06:09:57.737Z,12.40
2022-10-19T06:12:32.667Z,12.40
2022-10-19T06:15:02.683Z,12.60
2022-10-19T06:17:39.209Z,12.20
2022-10-19T06:20:34.119Z,12.10
2022-10-19T06:23:13.293Z,12.10
2022-10-19T06:25:56.078Z,12.10
2022-10-19T06:28:30.580Z,12.40
2022-10-19T06:31:05.944Z,12.10
2022-10-19T06:33:43.174Z,12.20
2022-10-19T06:36:21.206Z,12.40
2022-10-19T06:38:55.101Z,12.60
2022-10-19T06:41:28.807Z,12.70
2022-10-19T06:44:07.972Z,12.40
2022-10-19T06:46:41.801Z,12.60
2022-10-19T06:49:18.121Z,12.20
2022-10-19T06:54:43.753Z,12.60
2022-10-19T06:57:27.398Z,12.30
2022-10-19T07:00:01.402Z,12.40
2022-10-19T07:02:37.363Z,12.20
2022-10-19T07:05:14.489Z,12.20
2022-10-19T07:07:46.948Z,12.30
2022-10-19T07:10:25.188Z,12.30
2022-10-19T07:13:01.319Z,12.20
2022-10-19T07:15:35.510Z,12.10
2022-10-19T07:18:10.015Z,11.90
2022-10-19T07:20:43.523Z,12.00
2022-10-19T07:23:20.560Z,12.10
2022-10-19T07:26:01.678Z,12.10
2022-10-19T07:28:34.626Z,12.00
2022-10-19T07:31:18.825Z,12.00
2022-10-19T07:33:56.689Z,12.10
2022-10-19T07:36:40.246Z,12.20
2022-10-19T07:39:13.530Z,11.90
2022-10-19T07:41:49.202Z,11.90
2022-10-19T07:44:22.586Z,11.80
2022-10-19T07:46:54.415Z,11.90
2022-10-19T07:49:26.971Z,12.30
2022-10-19T07:52:03.048Z,12.20
2022-10-19T08:00:51.781Z,12.00
2022-10-19T08:06:26.441Z,12.00
2022-10-19T08:09:03.337Z,11.90
2022-10-19T08:11:40.615Z,11.80
2022-10-19T08:14:14.533Z,11.90
2022-10-19T08:19:35.615Z,12.10
2022-10-19T08:22:11.122Z,12.00
2022-10-19T08:24:43.799Z,12.10
2022-10-19T08:27:16.585Z,12.00
2022-10-19T08:29:49.200Z,12.00
2022-10-19T08:32:30.391Z,11.90
2022-10-19T08:35:05.977Z,11.70
2022-10-19T08:37:54.337Z,11.80
2022-10-19T08:40:32.427Z,12.00
2022-10-19T08:43:37.658Z,12.10
2022-10-19T08:46:41.233Z,11.90
2022-10-19T08:49:20.182Z,11.80
2022-10-19T08:52:04.293Z,11.70
2022-10-19T08:55:06.887Z,11.60
2022-10-19T08:58:06.112Z,11.80
2022-10-19T09:00:55.873Z,11.70
2022-10-19T09:04:04.333Z,11.40
2022-10-19T09:07:15.040Z,11.90
2022-10-19T09:10:12.828Z,11.90
2022-10-19T09:13:01.760Z,11.20
2022-10-19T09:15:48.299Z,11.30
2022-10-19T09:18:38.926Z,11.10
2022-10-19T09:21:31.039Z,11.30
2022-10-19T09:25:00.251Z,11.10
2022-10-19T09:27:42.996Z,11.00
2022-10-19T09:30:26.272Z,11.00
2022-10-19T09:33:15.430Z,11.00
2022-10-19T09:35:55.092Z,11.00
2022-10-19T09:38:40.236Z,11.10
2022-10-19T09:41:24.157Z,11.00
2022-10-19T09:43:58.776Z,10.90
2022-10-19T09:47:00.133Z,10.80
2022-10-19T09:49:50.038Z,10.90
2022-10-19T09:52:47.632Z,11.30
2022-10-19T09:55:43.843Z,11.10
2022-10-19T09:58:37.528Z,11.00
2022-10-19T10:01:39.906Z,10.90
2022-10-19T10:04:20.793Z,11.00
2022-10-19T10:06:55.519Z,10.70
2022-10-19T10:09:37.948Z,10.70
2022-10-19T10:12:14.980Z,10.90
2022-10-19T10:14:53.369Z,10.80
2022-10-19T10:17:39.324Z,10.90
2022-10-19T10:20:27.933Z,10.60
2022-10-19T10:23:01.854Z,10.70
2022-10-19T10:25:39.579Z,10.80
2022-10-19T10:28:28.360Z,10.60
2022-10-19T10:31:13.421Z,10.40
2022-10-19T10:33:46.071Z,10.50
2022-10-19T10:36:31.868Z,10.60
2022-10-19T10:39:09.930Z,10.50
2022-10-19T10:41:46.017Z,10.30
2022-10-19T10:44:36.614Z,10.40
2022-10-19T10:47:16.526Z,10.40
2022-10-19T10:49:56.481Z,10.40
2022-10-19T10:52:45.874Z,10.10
2022-10-19T10:55:57.438Z,10.10
2022-10-19T10:59:13.286Z,10.20
2022-10-19T11:02:19.736Z,10.40
2022-10-19T11:05:17.075Z,10.30
2022-10-19T11:07:50.590Z,10.30
2022-10-19T11:11:04.114Z,10.30
2022-10-19T11:14:12.530Z,10.30
2022-10-19T11:16:47.074Z,10.10
2022-10-19T11:19:39.447Z,10.20
2022-10-19T11:22:59.318Z,10.20
2022-10-19T11:25:43.224Z,10.40
2022-10-19T11:29:06.439Z,10.20
2022-10-19T11:32:16.237Z,10.10
2022-10-19T11:35:17.486Z,10.40
2022-10-19T11:38:17.653Z,10.20
2022-10-19T11:41:16.947Z,10.30
2022-10-19T11:44:13.608Z,10.20
2022-10-19T11:47:47.927Z,10.10
2022-10-19T11:51:16.805Z,10.20
2022-10-19T11:54:25.620Z,10.00
2022-10-19T11:57:12.478Z,10.00
2022-10-19T11:59:50.845Z,10.10
2022-10-19T12:03:15.952Z,9.90
2022-10-19T12:06:21.851Z,10.00
2022-10-19T12:09:51.943Z,9.90
2022-10-19T12:12:41.498Z,10.10
2022-10-19T12:15:49.692Z,10.00
2022-10-19T12:18:49.666Z,9.90
2022-10-19T12:21:52.674Z,10.10
2022-10-19T12:24:31.490Z,9.90
2022-10-19T12:27:03.454Z,9.90
2022-10-19T12:30:01.317Z,9.90
2022-10-19T12:32:53.394Z,10.00
2022-10-19T12:35:34.072Z,9.90
2022-10-19T12:38:46.137Z,10.00
2022-10-19T12:41:38.819Z,10.10
2022-10-19T12:44:34.259Z,10.10
2022-10-19T12:47:40.556Z,10.20
2022-10-19T12:50:24.061Z,10.20
2022-10-19T12:52:57.882Z,10.10
2022-10-19T12:55:39.475Z,10.10
2022-10-19T12:58:53.015Z,10.20
2022-10-19T13:01:33.995Z,10.10
2022-10-19T13:04:39.634Z,10.30
2022-10-19T13:07:22.306Z,10.30
2022-10-19T13:13:02.752Z,10.20
2022-10-19T13:15:53.977Z,10.50
2022-10-19T13:19:01.557Z,10.40
2022-10-19T13:22:04.531Z,10.30
2022-10-19T13:24:48.369Z,10.40
2022-10-19T13:30:47.601Z,10.60
2022-10-19T13:33:37.253Z,10.60
2022-10-19T13:36:23.228Z,10.60
2022-10-19T13:39:13.217Z,10.70
2022-10-19T13:42:04.572Z,10.60
2022-10-19T13:44:44.998Z,10.80
2022-10-19T13:47:34.777Z,10.90
2022-10-19T13:50:50.044Z,11.00
2022-10-19T13:53:42.902Z,11.00
2022-10-19T13:59:39.645Z,11.00
2022-10-19T14:02:57.161Z,11.00
2022-10-19T14:05:46.466Z,11.30
2022-10-19T14:08:36.038Z,11.40
2022-10-19T14:14:20.777Z,11.50
2022-10-19T14:17:05.639Z,11.70
2022-10-19T14:19:54.611Z,11.60
2022-10-19T14:23:07.821Z,11.70
2022-10-19T14:25:44.411Z,11.90
2022-10-19T14:28:35.934Z,11.90
2022-10-19T14:31:22.096Z,11.90
2022-10-19T14:34:07.002Z,11.90
2022-10-19T14:36:53.756Z,12.10
2022-10-19T14:39:30.410Z,11.80
2022-10-19T14:42:07.870Z,12.00
2022-10-19T14:44:49.319Z,12.20
2022-10-19T14:47:28.603Z,12.20
2022-10-19T14:50:00.102Z,12.10
2022-10-19T14:52:45.626Z,12.20
2022-10-19T14:55:31.283Z,12.40
2022-10-19T14:58:02.616Z,12.40
2022-10-19T15:00:37.125Z,12.50
2022-10-19T15:03:40.226Z,12.50
2022-10-19T15:06:42.909Z,12.70
2022-10-19T15:09:37.759Z,12.70
2022-10-19T15:12:32.505Z,12.80
2022-10-19T15:15:02.944Z,12.80
2022-10-19T15:17:35.609Z,12.80
2022-10-19T15:20:26.182Z,13.00
2022-10-19T15:23:00.922Z,12.90
2022-10-19T15:25:42.499Z,13.00
2022-10-19T15:28:41.956Z,13.10
2022-10-19T15:31:29.679Z,13.20
2022-10-19T15:34:04.577Z,13.20
2022-10-19T15:36:35.741Z,13.20
2022-10-19T15:39:25.167Z,13.10
2022-10-19T15:42:47.255Z,13.20
2022-10-19T15:45:40.420Z,13.30
2022-10-19T15:48:17.380Z,13.30
2022-10-19T15:50:55.444Z,13.40
2022-10-19T15:53:29.989Z,13.50
2022-10-19T15:58:34.872Z,13.70
2022-10-19T16:01:05.935Z,13.70
2022-10-19T16:03:43.486Z,13.80
2022-10-19T16:06:20.237Z,13.80
2022-10-19T16:08:59.225Z,13.80
2022-10-19T16:11:37.645Z,13.90
2022-10-19T16:14:14.843Z,13.90
2022-10-19T16:16:52.392Z,13.90
2022-10-19T16:19:23.782Z,14.00
2022-10-19T16:22:22.242Z,14.00
2022-10-19T16:24:58.723Z,14.10
2022-10-19T16:27:29.298Z,14.20
2022-10-19T16:30:03.358Z,14.10
2022-10-19T16:32:46.294Z,14.10
2022-10-19T16:35:18.633Z,14.10
2022-10-19T16:37:54.705Z,14.20
2022-10-19T16:40:25.617Z,14.40
2022-10-19T16:42:57.823Z,14.40
2022-10-19T16:45:33.146Z,14.40
2022-10-19T16:48:09.317Z,14.40
2022-10-19T16:50:45.273Z,14.50
2022-10-19T16:53:17.946Z,14.70
2022-10-19T16:55:52.685Z,14.70
2022-10-19T16:59:00.380Z,14.80
2022-10-19T17:01:33.336Z,14.70
2022-10-19T17:04:06.109Z,14.80
2022-10-19T17:06:52.705Z,14.80
2022-10-19T17:09:44.282Z,15.00
2022-10-19T17:13:16.258Z,15.10
2022-10-19T17:15:46.697Z,15.30
2022-10-19T17:18:26.481Z,15.30
2022-10-19T17:21:05.256Z,15.30
2022-10-19T17:23:47.369Z,15.40
2022-10-19T17:26:34.458Z,15.50
2022-10-19T17:29:22.657Z,15.60
2022-10-19T17:31:57.639Z,15.70
2022-10-19T17:34:36.724Z,15.70
2022-10-19T17:37:41.097Z,15.70
2022-10-19T17:40:11.870Z,15.80
2022-10-19T17:42:48.171Z,15.90
2022-10-19T17:45:22.156Z,15.80
2022-10-19T17:47:55.593Z,15.80
2022-10-19T17:50:35.482Z,15.70
2022-10-19T17:53:10.776Z,15.70
2022-10-19T17:55:48.303Z,15.90
2022-10-19T17:58:21.074Z,15.90
2022-10-19T18:01:01.845Z,15.90
2022-10-19T18:03:51.107Z,15.90
2022-10-19T18:06:41.311Z,16.10
2022-10-19T18:09:16.064Z,16.00
2022-10-19T18:11:49.536Z,16.10
2022-10-19T18:14:49.692Z,16.20
2022-10-19T18:17:24.010Z,16.10
2022-10-19T18:20:00.176Z,16.40
2022-10-19T18:25:21.881Z,16.50
2022-10-19T18:28:01.248Z,16.60
2022-10-19T18:30:35.403Z,16.70
2022-10-19T18:33:09.823Z,16.60
2022-10-19T18:35:47.153Z,16.60
2022-10-19T18:38:18.868Z,16.70
2022-10-19T18:40:54.767Z,16.70
2022-10-19T18:43:27.611Z,16.70
2022-10-19T18:46:08.999Z,16.70
2022-10-19T18:48:46.315Z,16.80
2022-10-19T18:51:27.577Z,17.00
2022-10-19T18:54:01.923Z,17.20
2022-10-19T18:56:41.120Z,17.30
2022-10-19T18:59:17.100Z,17.20
2022-10-19T19:01:47.432Z,17.20
2022-10-19T19:04:28.357Z,17.30
2022-10-19T19:09:47.558Z,17.40
2022-10-19T19:15:11.646Z,17.40
2022-10-19T19:17:51.252Z,17.40
2022-10-19T19:20:25.229Z,17.70
2022-10-19T19:22:57.692Z,17.90
2022-10-19T19:28:49.210Z,17.80
2022-10-19T19:31:48.344Z,17.70
2022-10-19T19:34:20.299Z,17.70
2022-10-19T19:37:29.770Z,17.70
2022-10-19T19:40:12.854Z,17.70
2022-10-19T19:42:49.210Z,17.80
2022-10-19T19:45:23.054Z,17.70
2022-10-19T19:50:58.157Z,18.00
2022-10-19T19:53:32.936Z,18.10
2022-10-19T19:56:14.906Z,18.10
2022-10-19T19:58:49.629Z,17.90
2022-10-19T20:01:43.813Z,18.00
2022-10-19T20:04:17.537Z,18.00
2022-10-19T20:06:49.066Z,18.10
2022-10-19T20:09:25.151Z,18.10
2022-10-19T20:12:02.734Z,18.10
2022-10-19T20:14:37.511Z,18.10
2022-10-19T20:17:12.444Z,18.20
2022-10-19T20:19:46.696Z,18.30
2022-10-19T20:22:18.453Z,18.30
2022-10-19T20:24:51.315Z,18.50
2022-10-19T20:27:24.135Z,18.60
2022-10-19T20:30:00.107Z,18.70
2022-10-19T20:32:31.837Z,18.80
2022-10-19T20:35:09.428Z,18.70
2022-10-19T20:37:45.102Z,18.70
2022-10-19T20:40:23.393Z,18.60
2022-10-19T20:42:58.459Z,18.80
2022-10-19T20:45:28.889Z,18.70
2022-10-19T20:48:03.255Z,18.70
2022-10-19T20:50:35.576Z,18.90
2022-10-19T20:53:09.840Z,18.90
2022-10-19T20:55:50.882Z,18.80
2022-10-19T20:58:22.506Z,18.80
2022-10-19T21:01:14.046Z,18.80
2022-10-19T21:03:59.631Z,18.90
2022-10-19T21:06:43.833Z,19.00
2022-10-19T21:09:22.612Z,19.00
2022-10-19T21:11:56.569Z,18.90
2022-10-19T21:14:32.273Z,19.00
2022-10-19T21:17:03.550Z,19.10
2022-10-19T21:19:44.875Z,19.10
2022-10-19T21:22:19.190Z,19.30
2022-10-19T21:24:54.175Z,19.30
2022-10-19T21:27:31.330Z,19.30
2022-10-19T21:30:02.661Z,19.40
2022-10-19T21:32:43.180Z,19.50
2022-10-19T21:35:36.599Z,19.50
2022-10-19T21:38:22.231Z,19.70
2022-10-19T21:41:05.468Z,19.60
2022-10-19T21:43:47.068Z,19.50
2022-10-19T21:46:35.180Z,19.60
2022-10-19T21:49:12.989Z,19.50
2022-10-19T21:51:53.827Z,19.30
2022-10-19T21:54:29.108Z,19.40
2022-10-19T21:57:29.832Z,19.50
2022-10-19T22:00:03.787Z,19.60
2022-10-19T22:02:57.654Z,19.50
2022-10-19T22:05:30.829Z,19.60
2022-10-19T22:08:08.846Z,19.50
2022-10-19T22:10:45.707Z,19.50
2022-10-19T22:13:17.863Z,19.60
2022-10-19T22:15:57.136Z,19.60
2022-10-19T22:21:28.527Z,19.50
2022-10-19T22:24:12.758Z,19.40
2022-10-19T22:26:55.656Z,19.60
2022-10-19T22:29:40.341Z,19.50
2022-10-19T22:32:14.514Z,19.60
2022-10-19T22:34:46.712Z,19.40
2022-10-19T22:37:19.570Z,19.30
2022-10-19T22:39:55.307Z,19.30
2022-10-19T22:43:22.369Z,19.50
2022-10-19T22:46:15.773Z,19.50
2022-10-19T22:48:50.617Z,19.40
2022-10-19T22:51:28.090Z,19.40
2022-10-19T22:54:01.589Z,19.30
2022-10-19T22:56:41.331Z,19.30
2022-10-19T22:59:17.343Z,19.30
2022-10-19T23:01:50.547Z,19.30
2022-10-19T23:04:24.833Z,19.20
2022-10-19T23:07:08.170Z,19.20
2022-10-19T23:12:42.309Z,19.20
2022-10-19T23:15:21.459Z,19.20
2022-10-19T23:17:55.039Z,19.20
2022-10-19T23:20:31.356Z,19.10
2022-10-19T23:23:02.290Z,19.10
2022-10-19T23:25:34.656Z,19.10
2022-10-19T23:28:08.505Z,19.00
2022-10-19T23:30:45.857Z,18.90
2022-10-19T23:33:23.971Z,18.90
2022-10-19T23:35:56.101Z,18.90
2022-10-19T23:38:28.792Z,18.80
2022-10-19T23:41:11.107Z,18.80
2022-10-19T23:43:48.458Z,18.70
2022-10-19T23:46:22.418Z,18.70
2022-10-19T23:48:59.247Z,18.60
2022-10-19T23:51:30.058Z,18.50
2022-10-19T23:54:04.569Z,18.50
2022-10-19T23:56:44.462Z,18.40
2022-10-19T23:59:22.608Z,18.30
